Saint Louisville, Ohio
Current Conditions -  °F | °C
As of 3:07 PM on Thursday 29 Jan 2015 (Local Time) from KVTA Reporting Station
Overcast Overcast  
Wind Chill: 40°   Ceiling: 2800
Heat Index: 40°   Visibility: 10mi
Dew Point: 32°   Wind: 3mph
Humidity: 73%   Direction: 190°S
Pressure: 29.77"   Gusts: NA
Location:  40.17°N, 82.42°W
Report Text: KVTA 292007Z AUTO 19003KT 10SM OVC028 04/00 A2977 RMK AO2 T00440000
Loading
Personal Weather Stations






























Interactive Weather Map New forecast layout! Learn more

10-Day Weather Forecast

Advertisements
Track Severe Weather on mobile